Map

Track Data

SID SEASON NUMBER BASIN SUBBASIN NAME ISO_TIME NATURE LAT LON WMO_WIND WMO_PRES WMO_AGENCY TRACK_TYPE DIST2LAND LANDFALL IFLAG USA_AGENCY USA_ATCF_ID USA_LAT USA_LON USA_RECORD USA_STATUS USA_WIND USA_PRES USA_SSHS USA_R34_NE USA_R34_SE USA_R34_SW USA_R34_NW USA_R50_NE USA_R50_SE USA_R50_SW USA_R50_NW USA_R64_NE USA_R64_SE USA_R64_SW USA_R64_NW USA_POCI USA_ROCI USA_RMW USA_EYE TOKYO_LAT TOKYO_LON TOKYO_GRADE TOKYO_WIND TOKYO_PRES TOKYO_R50_DIR TOKYO_R50_LONG TOKYO_R50_SHORT TOKYO_R30_DIR TOKYO_R30_LONG TOKYO_R30_SHORT TOKYO_LAND CMA_LAT CMA_LON CMA_CAT CMA_WIND CMA_PRES HKO_LAT HKO_LON HKO_CAT HKO_WIND HKO_PRES NEWDELHI_LAT NEWDELHI_LON NEWDELHI_GRADE NEWDELHI_WIND NEWDELHI_PRES NEWDELHI_CI NEWDELHI_DP NEWDELHI_POCI REUNION_LAT REUNION_LON REUNION_TYPE REUNION_WIND REUNION_PRES REUNION_TNUM REUNION_CI REUNION_RMW REUNION_R34_NE REUNION_R34_SE REUNION_R34_SW REUNION_R34_NW REUNION_R50_NE REUNION_R50_SE REUNION_R50_SW REUNION_R50_NW REUNION_R64_NE REUNION_R64_SE REUNION_R64_SW REUNION_R64_NW BOM_LAT BOM_LON BOM_TYPE BOM_WIND BOM_PRES BOM_TNUM BOM_CI BOM_RMW BOM_R34_NE BOM_R34_SE BOM_R34_SW BOM_R34_NW BOM_R50_NE BOM_R50_SE BOM_R50_SW BOM_R50_NW BOM_R64_NE BOM_R64_SE BOM_R64_SW BOM_R64_NW BOM_ROCI BOM_POCI BOM_EYE BOM_POS_METHOD BOM_PRES_METHOD NADI_LAT NADI_LON NADI_CAT NADI_WIND NADI_PRES WELLINGTON_LAT WELLINGTON_LON WELLINGTON_WIND WELLINGTON_PRES DS824_LAT DS824_LON DS824_STAGE DS824_WIND DS824_PRES TD9636_LAT TD9636_LON TD9636_STAGE TD9636_WIND TD9636_PRES TD9635_LAT TD9635_LON TD9635_WIND TD9635_PRES TD9635_ROCI NEUMANN_LAT NEUMANN_LON NEUMANN_CLASS NEUMANN_WIND NEUMANN_PRES MLC_LAT MLC_LON MLC_CLASS MLC_WIND MLC_PRES USA_GUST BOM_GUST BOM_GUST_PER REUNION_GUST REUNION_GUST_PER USA_SEAHGT USA_SEARAD_NE USA_SEARAD_SE USA_SEARAD_SW USA_SEARAD_NW STORM_SPEED STORM_DIR
2001320S11146 2002 93 SP EA NOT_NAMED 2001-11-16 00:00:00 TS -10.5000 145.500 main 204 204 O___________O_ jtwc_sh SH032002 -10.5000 145.500 TD 15 1006 -1 -10.5000 145.500 TC 15 11 286
2001320S11146 2002 93 SP EA NOT_NAMED 2001-11-16 03:00:00 TS -10.3577 144.985 main 235 180 P___________P_ SH032002 -10.3577 144.985 TD 15 1006 -1 -10.3577 144.985 TC 15 10 287
2001320S11146 2002 93 SP EA NOT_NAMED 2001-11-16 06:00:00 TS -10.2000 144.500 main 180 135 O___________O_ jtwc_sh SH032002 -10.2000 144.500 TD 15 1006 -1 -10.2000 144.500 TC 15 10 291
2001320S11146 2002 93 SP EA NOT_NAMED 2001-11-16 09:00:00 TS -10.0149 144.070 main 135 95 P___________P_ SH032002 -10.0149 144.070 TD 15 1006 -1 -10.0149 144.070 TC 15 9 297
2001320S11146 2002 93 SP EA NOT_NAMED 2001-11-16 12:00:00 TS -9.80000 143.700 main 95 67 O___________O_ jtwc_sh SH032002 -9.80000 143.700 TD 15 1006 -1 -9.80000 143.700 TC 15 8 304
2001320S11146 2002 93 SP EA NOT_NAMED 2001-11-16 15:00:00 TS -9.55745 143.378 main 67 24 P___________P_ SH032002 -9.55745 143.378 TD 17 1005 -1 -9.55745 143.378 TC 17 8 310
2001320S11146 2002 93 SP EA NOT_NAMED 2001-11-16 18:00:00 TS -9.30000 143.100 main 24 0 O___________O_ jtwc_sh SH032002 -9.30000 143.100 TD 20 1004 -1 -9.30000 143.100 TC 20 7 316
2001320S11146 2002 93 SP EA NOT_NAMED 2001-11-16 21:00:00 TS -9.02743 142.858 main 0 0 P___________P_ SH032002 -9.02743 142.858 TD 22 1003 -1 -9.02743 142.858 TC 22 7 315
2001320S11146 2002 93 SP EA NOT_NAMED 2001-11-17 00:00:00 TS -8.80000 142.600 main 0 0 O___________O_ jtwc_sh SH032002 -8.80000 142.600 TD 25 1002 -1 -8.80000 142.600 TC 25 7 304
2001320S11146 2002 93 SP EA NOT_NAMED 2001-11-17 03:00:00 TS -8.66238 142.303 main 0 0 P___________P_ SH032002 -8.66238 142.303 TD 25 1003 -1 -8.66238 142.303 TC 25 7 286
2001320S11146 2002 93 SP EA NOT_NAMED 2001-11-17 06:00:00 TS -8.60000 141.900 main 0 0 O___________O_ jtwc_sh SH032002 -8.60000 141.900 TD 25 1004 -1 1007 150 35 -8.60000 141.900 TC 25 10 274
2001320S11146 2002 93 SP EA NOT_NAMED 2001-11-17 09:00:00 TS -8.59277 141.278 main 0 0 P___________P_ SH032002 -8.59277 141.278 TD 25 1004 -1 1007 150 35 -8.59277 141.278 TC 25 12 270
2001320S11146 2002 93 SP EA NOT_NAMED 2001-11-17 12:00:00 TS -8.60000 140.700 main 0 0 O___________O_ jtwc_sh SH032002 -8.60000 140.700 TD 25 1004 -1 1007 150 35 -8.60000 140.700 TC 25 8 269
2001320S11146 2002 93 SP EA NOT_NAMED 2001-11-17 15:00:00 TS -8.60980 140.455 main 0 0 P___________P_ SH032002 -8.60980 140.455 TD 25 1003 -1 1007 150 35 -8.60980 140.455 TC 25 4 284
2001320S11146 2002 93 SP EA NOT_NAMED 2001-11-17 18:00:00 TS -8.50000 140.300 main 11 0 O___________O_ jtwc_sh SH032002 -8.50000 140.300 TD 25 1002 -1 1007 150 35 -8.50000 140.300 TC 25 6 318
2001320S11146 2002 93 SP EA NOT_NAMED 2001-11-17 21:00:00 TS -8.12999 140.022 main 0 0 P___________P_ SH032002 -8.12999 140.022 TD 25 1002 -1 1007 150 35 -8.12999 140.022 TC 25 10 323
2001320S11146 2002 93 SP EA NOT_NAMED 2001-11-18 00:00:00 TS -7.70000 139.700 main 0 0 O___________O_ jtwc_sh SH032002 -7.70000 139.700 TD 25 1002 -1 1007 150 35 -7.70000 139.700 TC 25 10 317
2001320S11146 2002 93 SP EA NOT_NAMED 2001-11-18 03:00:00 TS -7.41249 139.358 main 0 0 P___________P_ SH032002 -7.41249 139.358 TD 25 1002 -1 1007 150 35 -7.41249 139.358 TC 25 9 306
2001320S11146 2002 93 SP EA NOT_NAMED 2001-11-18 06:00:00 TS -7.20000 139.000 main 0 0 O___________O_ jtwc_sh SH032002 -7.20000 139.000 TD 25 1002 -1 1007 150 35 -7.20000 139.000 TC 25 8 298
2001320S11146 2002 93 SP EA NOT_NAMED 2001-11-18 09:00:00 TS -7.03500 138.635 main 0 0 P___________P_ SH032002 -7.03500 138.635 TD 25 1002 -1 1007 150 35 -7.03500 138.635 TC 25 8 293
2001320S11146 2002 93 SP EA NOT_NAMED 2001-11-18 12:00:00 TS -6.90000 138.300 main 24 24 O___________O_ jtwc_sh SH032002 -6.90000 138.300 TD 25 1002 -1 1007 150 35 -6.90000 138.300 TC 25 7 297
2001320S11146 2002 93 SP EA NOT_NAMED 2001-11-18 15:00:00 TS -6.72747 138.028 main 62 62 P___________P_ SH032002 -6.72747 138.028 TD 25 1002 -1 1006 150 35 -6.72747 138.028 TC 25 6 301
2001320S11146 2002 93 SP EA NOT_NAMED 2001-11-18 18:00:00 TS -6.60000 137.800 main 74 74 O___________O_ jtwc_sh SH032002 -6.60000 137.800 TD 25 1002 -1 1006 150 35 -6.60000 137.800 TC 25 5 289
2001320S11146 2002 93 SP EA NOT_NAMED 2001-11-18 21:00:00 TS -6.57747 137.600 main 94 94 P___________P_ SH032002 -6.57747 137.600 TD 25 1002 -1 1006 150 35 -6.57747 137.600 TC 25 4 270
2001320S11146 2002 93 SP EA NOT_NAMED 2001-11-19 00:00:00 TS -6.60000 137.400 main 115 115 O___________O_ jtwc_sh SH032002 -6.60000 137.400 TD 25 1002 -1 1006 150 35 -6.60000 137.400 TC 25 4 267
2001320S11146 2002 93 SP EA NOT_NAMED 2001-11-19 03:00:00 TS -6.59996 137.180 main 135 135 P___________P_ SH032002 -6.59996 137.180 TD 25 1002 -1 1006 150 35 -6.59996 137.180 TC 25 5 270
2001320S11146 2002 93 SP EA NOT_NAMED 2001-11-19 06:00:00 TS -6.60000 136.900 main 163 163 O___________O_ jtwc_sh SH032002 -6.60000 136.900 TD 25 1002 -1 1006 150 35 -6.60000 136.900 TC 25 6 269
2001320S11146 2002 93 SP EA NOT_NAMED 2001-11-19 09:00:00 TS -6.60750 136.530 main 191 154 P___________P_ SH032002 -6.60750 136.530 TD 25 1002 -1 1006 150 35 -6.60750 136.530 TC 25 8 270
2001320S11146 2002 93 SP EA NOT_NAMED 2001-11-19 12:00:00 TS -6.60000 136.100 main 154 114 O___________O_ jtwc_sh SH032002 -6.60000 136.100 TD 25 1002 -1 1006 150 35 -6.60000 136.100 TC 25 9 273
2001320S11146 2002 93 SP EA NOT_NAMED 2001-11-19 15:00:00 TS -6.55748 135.657 main 114 62 P___________P_ SH032002 -6.55748 135.657 TD 25 1002 -1 1006 135 35 -6.55748 135.657 TC 25 9 276
2001320S11146 2002 93 SP EA NOT_NAMED 2001-11-19 18:00:00 TS -6.50000 135.200 main 62 22 O___________O_ jtwc_sh SH032002 -6.50000 135.200 TD 25 1002 -1 1006 120 35 -6.50000 135.200 TC 25 9 278
2001320S11146 2002 93 SI WA NOT_NAMED 2001-11-19 21:00:00 TS -6.43492 134.765 main 22 0 P___________P_ SH032002 -6.43492 134.765 TD 25 1002 -1 1006 120 35 -6.43492 134.765 TC 25 9 276
2001320S11146 2002 93 SI WA NOT_NAMED 2001-11-20 00:00:00 TS -6.40000 134.300 main 0 0 O___________O_ jtwc_sh SH032002 -6.40000 134.300 TD 25 1002 -1 1006 120 35 -6.40000 134.300 TC 25 10 269
2001320S11146 2002 93 SI WA NOT_NAMED 2001-11-20 03:00:00 TS -6.45005 133.743 main 45 45 P___________P_ SH032002 -6.45005 133.743 TD 25 1002 -1 1006 120 35 -6.45005 133.743 TC 25 11 265
2001320S11146 2002 93 SI WA NOT_NAMED 2001-11-20 06:00:00 TS -6.50000 133.200 main 94 94 O___________O_ jtwc_sh SH032002 -6.50000 133.200 TD 25 1002 -1 1006 120 35 -6.50000 133.200 TC 25 9 270
2001320S11146 2002 93 SI WA NOT_NAMED 2001-11-20 09:00:00 TS -6.45735 132.800 main 136 118 P___________P_ SH032002 -6.45735 132.800 TD 25 1002 -1 1006 120 35 -6.45735 132.800 TC 25 8 277
2001320S11146 2002 93 SI WA NOT_NAMED 2001-11-20 12:00:00 TS -6.40000 132.400 main 118 92 O___________O_ jtwc_sh SH032002 -6.40000 132.400 TD 25 1002 -1 1006 120 35 -6.40000 132.400 TC 25 9 274
2001320S11146 2002 93 SI WA NOT_NAMED 2001-11-20 15:00:00 TS -6.38503 131.865 main 92 89 P___________P_ SH032002 -6.38503 131.865 TD 25 1002 -1 1006 105 35 -6.38503 131.865 TC 25 11 270
2001320S11146 2002 93 SI WA NOT_NAMED 2001-11-20 18:00:00 TS -6.40000 131.300 main 95 95 O___________O_ jtwc_sh SH032002 -6.40000 131.300 TD 25 1002 -1 1006 90 35 -6.40000 131.300 TC 25 11 267
2001320S11146 2002 93 SI WA NOT_NAMED 2001-11-20 21:00:00 TS -6.43493 130.792 main 125 125 P___________P_ SH032002 -6.43493 130.792 TD 27 1001 -1 1005 90 35 -6.43493 130.792 TC 27 10 264
2001320S11146 2002 93 SI WA NOT_NAMED 2001-11-21 00:00:00 TS -6.50000 130.300 main 149 149 O___________O_ jtwc_sh SH032002 -6.50000 130.300 TD 30 1001 -1 1005 90 35 -6.50000 130.300 TC 30 10 260
2001320S11146 2002 93 SI WA NOT_NAMED 2001-11-21 03:00:00 TS -6.60747 129.793 main 184 184 P___________P_ SH032002 -6.60747 129.793 TD 32 999 -1 1004 71 35 -6.60747 129.793 TC 32 10 259
2001320S11146 2002 93 SI WA NOT_NAMED 2001-11-21 06:00:00 TS -6.70000 129.300 main 228 228 O___________O_ jtwc_sh SH032002 -6.70000 129.300 TS 35 997 0 35 35 35 35 1004 52 35 -6.70000 129.300 TC 35 10 263
2001320S11146 2002 93 SI WA NOT_NAMED 2001-11-21 09:00:00 TS -6.72246 128.835 main 247 209 P___________P_ SH032002 -6.72246 128.835 TS 35 997 0 1004 86 35 -6.72246 128.835 TC 35 9 270
2001320S11146 2002 93 SI WA NOT_NAMED 2001-11-21 12:00:00 TS -6.70000 128.400 main 209 173 O___________O_ jtwc_sh SH032002 -6.70000 128.400 TS 35 997 0 1004 120 35 -6.70000 128.400 TC 35 9 274
2001320S11146 2002 93 SI WA NOT_NAMED 2001-11-21 15:00:00 TS -6.65748 127.977 main 173 151 P___________P_ SH032002 -6.65748 127.977 TS 35 997 0 1004 120 35 -6.65748 127.977 TC 35 8 277
2001320S11146 2002 93 SI WA NOT_NAMED 2001-11-21 18:00:00 TS -6.60000 127.600 main 151 135 O___________O_ jtwc_sh SH032002 -6.60000 127.600 TS 35 997 0 1004 120 35 -6.60000 127.600 TC 35 7 278
2001320S11146 2002 93 SI WA NOT_NAMED 2001-11-21 21:00:00 TS -6.55746 127.278 main 135 130 P___________P_ SH032002 -6.55746 127.278 TS 35 997 0 1005 120 35 -6.55746 127.278 TC 35 6 280
2001320S11146 2002 93 SI WA NOT_NAMED 2001-11-22 00:00:00 TS -6.50000 127.000 main 136 134 O___________O_ jtwc_sh SH032002 -6.50000 127.000 TS 35 997 0 1007 120 35 -6.50000 127.000 TC 35 6 285
2001320S11146 2002 93 SI WA NOT_NAMED 2001-11-22 03:00:00 TS -6.40750 126.728 main 145 145 P___________P_ SH032002 -6.40750 126.728 TS 35 997 0 1007 120 35 -6.40750 126.728 TC 35 5 292
2001320S11146 2002 93 SI WA NOT_NAMED 2001-11-22 06:00:00 TS -6.30000 126.500 main 156 156 O___________O_ jtwc_sh SH032002 -6.30000 126.500 TS 35 997 0 1007 120 35 -6.30000 126.500 TC 35 5 298
2001320S11146 2002 93 SI WA NOT_NAMED 2001-11-22 09:00:00 TS -6.19249 126.328 main 168 168 P___________P_ SH032002 -6.19249 126.328 TS 35 997 0 1007 120 35 -6.19249 126.328 TC 35 4 304
2001320S11146 2002 93 SI WA NOT_NAMED 2001-11-22 12:00:00 TS -6.10000 126.200 main 179 179 O___________O_ jtwc_sh SH032002 -6.10000 126.200 TS 35 997 0 1007 120 35 -6.10000 126.200 TC 35 3 302
2001320S11146 2002 93 SI WA NOT_NAMED 2001-11-22 15:00:00 TS -6.04250 126.085 main 190 190 P___________P_ SH032002 -6.04250 126.085 TS 35 997 0 -6.04250 126.085 TC 35 2 297
2001320S11146 2002 93 SI WA NOT_NAMED 2001-11-22 18:00:00 TS -6.00000 126.000 main 191 191 O___________O_ jtwc_sh SH032002 -6.00000 126.000 TS 35 997 0 -6.00000 126.000 TC 35 2 302
2001320S11146 2002 93 SI WA NOT_NAMED 2001-11-22 21:00:00 TS -5.95250 125.942 main 193 193 P___________P_ SH032002 -5.95250 125.942 TS 35 997 0 -5.95250 125.942 TC 35 1 317
2001320S11146 2002 93 SI WA NOT_NAMED 2001-11-23 00:00:00 TS -5.90000 125.900 main 204 O___________O_ jtwc_sh SH032002 -5.90000 125.900 TS 35 997 0 -5.90000 125.900 TC 35 1 320

Digital Typhoon Data and Search

About IBTrACS Database

This database is a web-friendly format of International Best Track Archive for Climate Stewardship (IBTrACS), a global best track data archive curated by NOAA dating back to 1842.

Updated: 2021-11-26